createdAt,value
2023-03-04T00:02:02.737Z,4.72
2023-03-04T00:04:34.895Z,5.70
2023-03-04T00:07:06.995Z,4.35
2023-03-04T00:09:39.039Z,5.07
2023-03-04T00:12:11.166Z,4.18
2023-03-04T00:14:43.217Z,4.63
2023-03-04T00:17:15.343Z,4.38
2023-03-04T00:19:47.527Z,3.85
2023-03-04T00:22:19.632Z,5.32
2023-03-04T00:24:51.709Z,5.35
2023-03-04T00:27:23.765Z,5.28
2023-03-04T00:29:56.694Z,5.07
2023-03-04T00:32:28.700Z,4.55
2023-03-04T00:35:00.871Z,10.25
2023-03-04T00:37:33.079Z,15.70
2023-03-04T00:40:06.140Z,6.90
2023-03-04T00:42:38.188Z,7.50
2023-03-04T00:45:10.909Z,5.32
2023-03-04T00:47:42.923Z,4.45
2023-03-04T00:50:15.013Z,5.75
2023-03-04T00:52:47.015Z,6.22
2023-03-04T00:55:19.232Z,4.25
2023-03-04T00:57:51.276Z,5.50
2023-03-04T01:00:23.960Z,5.05
2023-03-04T01:02:56.059Z,5.00
2023-03-04T01:05:28.220Z,5.22
2023-03-04T01:08:00.242Z,4.85
2023-03-04T01:10:32.379Z,5.15
2023-03-04T01:13:04.428Z,4.80
2023-03-04T01:15:36.519Z,7.43
2023-03-04T01:18:08.684Z,6.22
2023-03-04T01:20:40.850Z,4.38
2023-03-04T01:23:12.949Z,4.38
2023-03-04T01:25:44.957Z,6.07
2023-03-04T01:28:16.961Z,4.97
2023-03-04T01:30:49.342Z,4.88
2023-03-04T01:33:21.490Z,4.43
2023-03-04T01:35:53.555Z,4.72
2023-03-04T01:38:25.878Z,4.50
2023-03-04T01:40:57.989Z,4.57
2023-03-04T01:43:31.677Z,4.30
2023-03-04T01:46:04.319Z,4.43
2023-03-04T01:48:38.566Z,3.00
2023-03-04T01:51:17.712Z,3.33
2023-03-04T01:53:53.440Z,3.28
2023-03-04T01:56:31.463Z,2.67
2023-03-04T01:59:16.894Z,3.75
2023-03-04T02:02:00.477Z,3.75
2023-03-04T02:04:34.482Z,4.22
2023-03-04T02:07:06.971Z,4.20
2023-03-04T02:09:38.963Z,3.42
2023-03-04T02:12:11.041Z,3.17
2023-03-04T02:14:43.041Z,2.88
2023-03-04T02:17:15.233Z,2.65
2023-03-04T02:19:59.101Z,2.55
2023-03-04T02:22:32.849Z,2.63
2023-03-04T02:25:12.501Z,2.42
2023-03-04T02:27:44.563Z,2.33
2023-03-04T02:30:20.692Z,3.05
2023-03-04T02:32:53.771Z,3.95
2023-03-04T02:35:25.794Z,4.45
2023-03-04T02:37:57.774Z,3.88
2023-03-04T02:40:34.544Z,3.38
2023-03-04T02:43:09.227Z,4.07
2023-03-04T02:45:43.991Z,3.75
2023-03-04T02:48:20.551Z,3.58
2023-03-04T02:50:54.158Z,3.35
2023-03-04T02:53:26.199Z,4.32
2023-03-04T02:55:58.154Z,3.97
2023-03-04T02:58:30.273Z,3.22
2023-03-04T03:01:02.602Z,4.28
2023-03-04T03:03:34.688Z,4.30
2023-03-04T03:06:07.206Z,3.83
2023-03-04T03:08:39.254Z,3.38
2023-03-04T03:11:12.838Z,3.22
2023-03-04T03:13:44.787Z,4.03
2023-03-04T03:16:16.802Z,3.28
2023-03-04T03:18:48.876Z,3.00
2023-03-04T03:21:20.959Z,3.75
2023-03-04T03:23:53.101Z,3.30
2023-03-04T03:26:25.339Z,4.35
2023-03-04T03:28:57.383Z,2.90
2023-03-04T03:31:29.466Z,2.83
2023-03-04T03:34:01.583Z,2.58
2023-03-04T03:36:33.683Z,2.58
2023-03-04T03:39:05.883Z,2.60
2023-03-04T03:41:37.955Z,2.20
2023-03-04T03:44:10.000Z,3.67
2023-03-04T03:46:42.063Z,2.60
2023-03-04T03:49:14.668Z,2.47
2023-03-04T03:51:46.701Z,2.45
2023-03-04T03:54:18.689Z,2.42
2023-03-04T03:56:50.946Z,2.80
2023-03-04T03:59:24.268Z,2.70
2023-03-04T04:01:56.293Z,2.70
2023-03-04T04:04:28.932Z,3.13
2023-03-04T04:07:01.170Z,3.53
2023-03-04T04:09:36.358Z,2.40
2023-03-04T04:12:08.681Z,2.85
2023-03-04T04:14:40.929Z,2.65
2023-03-04T04:17:14.085Z,2.30
2023-03-04T04:19:46.099Z,2.30
2023-03-04T04:22:21.014Z,3.60
2023-03-04T04:24:53.035Z,4.07
2023-03-04T04:27:25.067Z,2.70
2023-03-04T04:29:57.051Z,3.08
2023-03-04T04:32:29.128Z,2.33
2023-03-04T04:35:01.104Z,2.50
2023-03-04T04:37:33.409Z,2.92
2023-03-04T04:40:06.246Z,2.70
2023-03-04T04:42:38.298Z,2.40
2023-03-04T04:45:11.192Z,2.47
2023-03-04T04:47:46.189Z,2.50
2023-03-04T04:50:18.477Z,3.17
2023-03-04T04:52:50.606Z,2.20
2023-03-04T04:55:22.628Z,3.08
2023-03-04T04:57:54.690Z,3.10
2023-03-04T05:00:27.115Z,2.67
2023-03-04T05:02:59.127Z,2.22
2023-03-04T05:05:31.194Z,2.30
2023-03-04T05:08:03.280Z,2.75
2023-03-04T05:10:35.268Z,2.55
2023-03-04T05:13:07.282Z,2.35
2023-03-04T05:15:39.795Z,2.63
2023-03-04T05:18:11.973Z,2.22
2023-03-04T05:20:44.172Z,2.22
2023-03-04T05:23:16.105Z,2.42
2023-03-04T05:25:48.204Z,2.38
2023-03-04T05:28:20.763Z,3.00
2023-03-04T05:30:52.829Z,2.50
2023-03-04T05:33:24.883Z,3.20
2023-03-04T05:35:57.106Z,2.88
2023-03-04T05:38:29.149Z,2.75
2023-03-04T05:41:05.862Z,2.50
2023-03-04T05:43:42.785Z,3.05
2023-03-04T05:46:17.483Z,2.88
2023-03-04T05:48:49.482Z,3.72
2023-03-04T05:51:22.982Z,2.38
2023-03-04T05:53:54.928Z,3.33
2023-03-04T05:56:26.997Z,4.20
2023-03-04T05:58:59.566Z,3.58
2023-03-04T06:01:31.739Z,4.35
2023-03-04T06:04:03.884Z,6.63
2023-03-04T06:06:35.949Z,7.82
2023-03-04T06:09:08.024Z,8.73
2023-03-04T06:11:40.283Z,9.60
2023-03-04T06:14:12.454Z,9.30
2023-03-04T06:16:44.624Z,7.70
2023-03-04T06:19:16.625Z,8.45
2023-03-04T06:21:48.755Z,7.85
2023-03-04T06:24:20.947Z,8.15
2023-03-04T06:26:52.950Z,8.32
2023-03-04T06:29:24.931Z,7.25
2023-03-04T06:31:56.960Z,6.38
2023-03-04T06:34:29.990Z,5.00
2023-03-04T06:37:02.331Z,6.18
2023-03-04T06:39:34.431Z,7.97
2023-03-04T06:42:06.631Z,7.82
2023-03-04T06:44:38.703Z,10.57
2023-03-04T06:47:10.841Z,10.68
2023-03-04T06:49:42.983Z,8.77
2023-03-04T06:52:15.647Z,7.53
2023-03-04T06:54:47.684Z,5.60
2023-03-04T06:57:19.756Z,5.55
2023-03-04T06:59:51.735Z,4.80
2023-03-04T07:02:24.132Z,3.58
2023-03-04T07:04:56.169Z,3.53
2023-03-04T07:07:28.221Z,2.50
2023-03-04T07:10:00.494Z,3.22
2023-03-04T07:12:32.866Z,2.22
2023-03-04T07:15:05.627Z,3.95
2023-03-04T07:17:37.624Z,3.15
2023-03-04T07:20:10.669Z,3.05
2023-03-04T07:22:42.618Z,2.97
2023-03-04T07:25:14.618Z,3.58
2023-03-04T07:27:46.578Z,3.53
2023-03-04T07:30:19.011Z,4.25
2023-03-04T07:32:51.347Z,3.60
2023-03-04T07:35:23.515Z,5.03
2023-03-04T07:37:55.614Z,3.83
2023-03-04T07:40:27.748Z,4.28
2023-03-04T07:42:59.806Z,3.28
2023-03-04T07:45:31.941Z,3.78
2023-03-04T07:48:04.198Z,4.00
2023-03-04T07:50:36.166Z,4.55
2023-03-04T07:53:08.173Z,6.97
2023-03-04T07:55:40.196Z,4.53
2023-03-04T07:58:12.169Z,5.25
2023-03-04T08:00:47.487Z,5.20
2023-03-04T08:03:19.468Z,4.22
2023-03-04T08:05:52.159Z,4.18
2023-03-04T08:08:24.190Z,4.22
2023-03-04T08:10:56.643Z,5.80
2023-03-04T08:13:28.744Z,4.88
2023-03-04T08:16:01.245Z,5.30
2023-03-04T08:18:33.538Z,4.05
2023-03-04T08:21:11.010Z,5.68
2023-03-04T08:23:43.256Z,4.50
2023-03-04T08:26:34.180Z,6.32
2023-03-04T08:29:06.525Z,6.10
2023-03-04T08:31:39.611Z,6.10
2023-03-04T08:34:13.170Z,5.90
2023-03-04T08:36:45.523Z,6.47
2023-03-04T08:39:21.255Z,4.47
2023-03-04T08:41:53.266Z,5.28
2023-03-04T08:44:26.789Z,6.18
2023-03-04T08:46:58.916Z,5.18
2023-03-04T08:49:30.978Z,4.80
2023-03-04T08:52:03.015Z,4.50
2023-03-04T08:54:35.256Z,3.60
2023-03-04T08:57:07.961Z,3.17
2023-03-04T08:59:40.015Z,3.20
2023-03-04T09:02:12.212Z,2.72
2023-03-04T09:04:44.263Z,4.30
2023-03-04T09:07:16.431Z,3.35
2023-03-04T09:09:48.404Z,3.17
2023-03-04T09:12:20.441Z,3.17
2023-03-04T09:15:08.252Z,3.00
2023-03-04T09:17:42.296Z,3.22
2023-03-04T09:20:14.399Z,4.93
2023-03-04T09:22:46.780Z,4.07
2023-03-04T09:25:18.851Z,4.40
2023-03-04T09:27:50.934Z,3.97
2023-03-04T09:30:23.173Z,3.67
2023-03-04T09:32:55.236Z,4.28
2023-03-04T09:35:29.962Z,5.28
2023-03-04T09:38:02.405Z,4.78
2023-03-04T09:40:48.496Z,3.85
2023-03-04T09:43:29.730Z,4.13
2023-03-04T09:46:13.057Z,3.75
2023-03-04T09:48:50.213Z,8.45
2023-03-04T09:52:17.208Z,4.63
2023-03-04T09:55:18.882Z,4.05
2023-03-04T09:58:27.457Z,4.50
2023-03-04T10:01:34.382Z,3.25
2023-03-04T10:04:40.672Z,4.90
2023-03-04T10:07:30.136Z,4.13
2023-03-04T10:10:17.477Z,4.43
2023-03-04T10:12:51.457Z,4.05
2023-03-04T10:15:39.300Z,3.60
2023-03-04T10:18:53.297Z,4.22
2023-03-04T10:21:36.932Z,3.58
2023-03-04T10:24:18.113Z,4.47
2023-03-04T10:26:56.156Z,3.42
2023-03-04T10:29:30.484Z,4.10
2023-03-04T10:32:02.597Z,4.25
2023-03-04T10:34:34.957Z,4.63
2023-03-04T10:37:08.871Z,5.50
2023-03-04T10:39:50.748Z,4.38
2023-03-04T10:42:29.926Z,4.18
2023-03-04T10:45:01.969Z,4.18
2023-03-04T10:47:35.386Z,5.25
2023-03-04T10:50:25.257Z,3.75
2023-03-04T10:52:57.700Z,3.10
2023-03-04T10:55:43.003Z,3.40
2023-03-04T10:58:19.364Z,4.00
2023-03-04T11:01:07.164Z,3.90
2023-03-04T11:03:47.267Z,4.10
2023-03-04T11:06:23.065Z,3.13
2023-03-04T11:09:00.374Z,4.90
2023-03-04T11:11:44.529Z,4.40
2023-03-04T11:14:23.601Z,2.72
2023-03-04T11:17:02.292Z,3.58
2023-03-04T11:19:42.254Z,3.90
2023-03-04T11:22:18.832Z,5.03
2023-03-04T11:25:26.823Z,4.47
2023-03-04T11:28:13.182Z,4.88
2023-03-04T11:30:51.037Z,4.18
2023-03-04T11:33:45.755Z,4.85
2023-03-04T11:36:37.203Z,4.43
2023-03-04T11:39:22.410Z,5.45
2023-03-04T11:42:24.114Z,4.00
2023-03-04T11:44:56.758Z,4.25
2023-03-04T11:48:08.753Z,4.32
2023-03-04T11:50:58.393Z,3.65
2023-03-04T11:54:19.055Z,3.92
2023-03-04T11:57:20.130Z,4.88
2023-03-04T12:00:22.898Z,4.28
2023-03-04T12:03:26.214Z,5.72
2023-03-04T12:06:37.818Z,4.07
2023-03-04T12:09:30.954Z,4.45
2023-03-04T12:12:29.936Z,4.22
2023-03-04T12:15:20.139Z,5.05
2023-03-04T12:18:30.306Z,4.07
2023-03-04T12:21:43.072Z,4.22
2023-03-04T12:24:42.966Z,4.88
2023-03-04T12:27:26.288Z,4.90
2023-03-04T12:30:23.325Z,5.40
2023-03-04T12:33:25.854Z,5.32
2023-03-04T12:36:27.446Z,4.30
2023-03-04T12:39:49.114Z,4.70
2023-03-04T12:42:51.311Z,4.97
2023-03-04T12:45:37.283Z,5.20
2023-03-04T12:48:33.214Z,5.28
2023-03-04T12:51:45.073Z,5.88
2023-03-04T12:54:26.268Z,4.95
2023-03-04T12:57:05.064Z,6.85
2023-03-04T13:00:32.260Z,6.15
2023-03-04T13:03:38.136Z,5.50
2023-03-04T13:06:38.578Z,6.13
2023-03-04T13:12:22.630Z,5.38
2023-03-04T13:15:10.040Z,4.70
2023-03-04T13:17:51.588Z,5.05
2023-03-04T13:20:42.909Z,5.00
2023-03-04T13:23:14.818Z,6.10
2023-03-04T13:25:55.893Z,5.05
2023-03-04T13:28:33.431Z,4.13
2023-03-04T13:31:10.842Z,4.32
2023-03-04T13:33:42.728Z,3.88
2023-03-04T13:36:54.972Z,6.13
2023-03-04T13:39:30.058Z,4.90
2023-03-04T13:42:03.614Z,3.97
2023-03-04T13:44:44.706Z,4.03
2023-03-04T13:47:21.923Z,5.78
2023-03-04T13:50:30.017Z,5.18
2023-03-04T13:53:31.449Z,4.72
2023-03-04T13:56:41.964Z,4.65
2023-03-04T13:59:30.188Z,4.93
2023-03-04T14:02:15.954Z,3.45
2023-03-04T14:04:59.847Z,3.42
2023-03-04T14:07:36.608Z,5.10
2023-03-04T14:10:11.604Z,3.90
2023-03-04T14:12:56.903Z,3.92
2023-03-04T14:15:35.166Z,4.38
2023-03-04T14:18:07.416Z,4.38
2023-03-04T14:20:48.918Z,4.18
2023-03-04T14:23:34.574Z,3.25
2023-03-04T14:26:18.489Z,3.97
2023-03-04T14:28:56.781Z,4.22
2023-03-04T14:31:34.948Z,4.40
2023-03-04T14:34:15.405Z,3.85
2023-03-04T14:36:47.540Z,3.95
2023-03-04T14:39:21.409Z,5.03
2023-03-04T14:41:56.821Z,5.72
2023-03-04T14:44:45.971Z,4.22
2023-03-04T14:47:40.536Z,4.43
2023-03-04T14:50:19.669Z,3.70
2023-03-04T14:53:19.037Z,4.63
2023-03-04T14:56:08.233Z,3.85
2023-03-04T14:58:58.256Z,4.47
2023-03-04T15:01:37.633Z,4.07
2023-03-04T15:04:12.283Z,4.53
2023-03-04T15:06:53.510Z,3.63
2023-03-04T15:09:27.404Z,2.85
2023-03-04T15:12:07.014Z,3.80
2023-03-04T15:14:50.221Z,3.53
2023-03-04T15:17:38.865Z,3.83
2023-03-04T15:20:10.804Z,3.65
2023-03-04T15:22:48.518Z,3.55
2023-03-04T15:25:21.507Z,3.70
2023-03-04T15:27:54.637Z,3.00
2023-03-04T15:30:33.336Z,3.30
2023-03-04T15:33:10.839Z,3.03
2023-03-04T15:35:54.032Z,4.32
2023-03-04T15:38:27.679Z,3.40
2023-03-04T15:40:59.855Z,2.83
2023-03-04T15:43:31.842Z,4.05
2023-03-04T15:46:04.359Z,2.78
2023-03-04T15:48:36.324Z,2.45
2023-03-04T15:51:15.713Z,2.85
2023-03-04T15:53:51.293Z,2.23
2023-03-04T15:56:32.357Z,2.65
2023-03-04T15:59:11.572Z,3.08
2023-03-04T16:01:44.061Z,3.03
2023-03-04T16:04:17.929Z,3.05
2023-03-04T16:06:50.633Z,2.65
2023-03-04T16:09:23.069Z,2.92
2023-03-04T16:12:01.829Z,3.95
2023-03-04T16:14:33.921Z,3.00
2023-03-04T16:17:05.960Z,3.85
2023-03-04T16:19:39.082Z,3.83
2023-03-04T16:22:18.936Z,3.58
2023-03-04T16:24:52.606Z,3.22
2023-03-04T16:27:26.634Z,2.53
2023-03-04T16:29:58.717Z,2.72
2023-03-04T16:32:33.099Z,4.05
2023-03-04T16:35:06.706Z,3.65
2023-03-04T16:37:39.292Z,4.28
2023-03-04T16:40:19.788Z,3.60
2023-03-04T16:42:51.937Z,3.78
2023-03-04T16:45:30.310Z,4.55
2023-03-04T16:48:02.324Z,5.05
2023-03-04T16:50:36.818Z,3.88
2023-03-04T16:53:39.278Z,5.30
2023-03-04T16:56:17.392Z,4.38
2023-03-04T16:58:49.640Z,4.20
2023-03-04T17:01:26.648Z,4.57
2023-03-04T17:03:58.646Z,4.60
2023-03-04T17:06:30.955Z,4.68
2023-03-04T17:09:02.924Z,5.03
2023-03-04T17:11:36.056Z,4.82
2023-03-04T17:14:08.054Z,5.07
2023-03-04T17:16:39.990Z,4.60
2023-03-04T17:19:11.930Z,5.40
2023-03-04T17:21:43.970Z,4.78
2023-03-04T17:24:15.989Z,4.40
2023-03-04T17:26:48.027Z,4.40
2023-03-04T17:29:20.543Z,4.78
2023-03-04T17:31:52.620Z,5.07
2023-03-04T17:34:25.898Z,4.60
2023-03-04T17:36:57.985Z,5.03
2023-03-04T17:39:29.957Z,5.68
2023-03-04T17:42:02.002Z,6.15
2023-03-04T17:44:34.105Z,5.43
2023-03-04T17:47:06.450Z,4.97
2023-03-04T17:49:38.447Z,6.57
2023-03-04T17:52:12.084Z,5.00
2023-03-04T17:54:46.442Z,5.00
2023-03-04T17:57:18.483Z,5.85
2023-03-04T17:59:50.591Z,4.75
2023-03-04T18:02:22.585Z,5.32
2023-03-04T18:04:54.585Z,4.93
2023-03-04T18:07:26.666Z,4.63
2023-03-04T18:09:58.702Z,6.82
2023-03-04T18:12:30.943Z,4.78
2023-03-04T18:15:03.053Z,5.60
2023-03-04T18:17:35.088Z,4.43
2023-03-04T18:20:08.081Z,5.13
2023-03-04T18:22:40.100Z,4.68
2023-03-04T18:25:12.887Z,4.65
2023-03-04T18:27:45.029Z,5.22
2023-03-04T18:30:17.926Z,4.40
2023-03-04T18:32:52.453Z,4.70
2023-03-04T18:35:24.611Z,4.78
2023-03-04T18:37:56.654Z,5.28
2023-03-04T18:40:29.718Z,5.55
2023-03-04T18:43:01.769Z,4.65
2023-03-04T18:45:33.825Z,5.40
2023-03-04T18:48:06.269Z,4.28
2023-03-04T18:50:38.221Z,4.53
2023-03-04T18:53:10.202Z,5.43
2023-03-04T18:55:42.169Z,3.95
2023-03-04T18:58:14.338Z,4.47
2023-03-04T19:00:46.636Z,4.78
2023-03-04T19:03:18.665Z,5.32
2023-03-04T19:05:50.726Z,5.30
2023-03-04T19:08:22.730Z,4.38
2023-03-04T19:10:55.798Z,5.07
2023-03-04T19:13:30.538Z,4.38
2023-03-04T19:16:02.600Z,5.75
2023-03-04T19:18:34.812Z,3.88
2023-03-04T19:21:07.017Z,5.03
2023-03-04T19:23:40.149Z,4.97
2023-03-04T19:26:13.908Z,4.30
2023-03-04T19:28:46.104Z,4.47
2023-03-04T19:31:18.214Z,4.28
2023-03-04T19:33:50.231Z,4.72
2023-03-04T19:36:22.453Z,4.57
2023-03-04T19:38:55.595Z,3.95
2023-03-04T19:41:30.089Z,3.72
2023-03-04T19:44:02.219Z,3.92
2023-03-04T19:46:34.684Z,4.30
2023-03-04T19:49:07.004Z,4.65
2023-03-04T19:51:41.290Z,4.25
2023-03-04T19:54:13.326Z,4.20
2023-03-04T19:56:45.412Z,4.25
2023-03-04T19:59:17.547Z,4.80
2023-03-04T20:01:49.631Z,5.13
2023-03-04T20:04:22.231Z,5.20
2023-03-04T20:06:54.217Z,6.18
2023-03-04T20:09:26.253Z,5.47
2023-03-04T20:11:59.539Z,6.47
2023-03-04T20:14:33.840Z,6.95
2023-03-04T20:17:07.193Z,6.22
2023-03-04T20:19:39.324Z,6.18
2023-03-04T20:22:13.450Z,6.75
2023-03-04T20:24:45.413Z,5.57
2023-03-04T20:27:18.118Z,6.45
2023-03-04T20:29:50.160Z,6.82
2023-03-04T20:32:22.902Z,6.93
2023-03-04T20:34:57.185Z,6.65
2023-03-04T20:37:29.391Z,7.57
2023-03-04T20:40:01.410Z,6.45
2023-03-04T20:42:33.972Z,6.20
2023-03-04T20:45:07.014Z,6.60
2023-03-04T20:47:39.744Z,6.57
2023-03-04T20:50:12.107Z,4.53
2023-03-04T20:52:46.179Z,4.80
2023-03-04T20:55:19.433Z,3.90
2023-03-04T20:57:51.420Z,4.38
2023-03-04T21:00:23.654Z,4.60
2023-03-04T21:02:55.755Z,3.90
2023-03-04T21:05:27.795Z,4.00
2023-03-04T21:07:59.881Z,3.38
2023-03-04T21:10:35.900Z,4.10
2023-03-04T21:13:11.327Z,4.70
2023-03-04T21:15:47.875Z,5.82
2023-03-04T21:18:19.871Z,6.70
2023-03-04T21:20:52.570Z,8.13
2023-03-04T21:23:24.699Z,8.13
2023-03-04T21:25:59.687Z,6.53
2023-03-04T21:28:31.661Z,9.95
2023-03-04T21:31:04.974Z,9.75
2023-03-04T21:33:37.491Z,6.28
2023-03-04T21:36:11.534Z,5.40
2023-03-04T21:38:45.124Z,4.82
2023-03-04T21:41:20.918Z,4.85
2023-03-04T21:43:52.958Z,4.70
2023-03-04T21:46:25.081Z,4.82
2023-03-04T21:48:57.058Z,6.13
2023-03-04T21:51:29.204Z,7.00
2023-03-04T21:54:01.723Z,5.65
2023-03-04T21:56:34.549Z,7.32
2023-03-04T21:59:10.178Z,5.88
2023-03-04T22:01:42.503Z,5.95
2023-03-04T22:04:14.544Z,5.90
2023-03-04T22:06:46.553Z,5.60
2023-03-04T22:09:18.654Z,5.90
2023-03-04T22:11:50.898Z,5.63
2023-03-04T22:14:22.828Z,6.28
2023-03-04T22:16:56.202Z,6.68
2023-03-04T22:19:32.381Z,5.30
2023-03-04T22:22:04.540Z,4.80
2023-03-04T22:24:36.609Z,4.45
2023-03-04T22:27:08.796Z,4.07
2023-03-04T22:29:40.779Z,3.58
2023-03-04T22:32:13.110Z,4.28
2023-03-04T22:34:45.173Z,3.60
2023-03-04T22:37:17.125Z,5.30
2023-03-04T22:39:49.202Z,3.75
2023-03-04T22:42:21.287Z,3.30
2023-03-04T22:44:55.709Z,3.80
2023-03-04T22:47:27.708Z,3.72
2023-03-04T22:49:59.669Z,3.97
2023-03-04T22:52:31.716Z,3.35
2023-03-04T22:55:04.305Z,3.50
2023-03-04T22:57:36.304Z,3.88
2023-03-04T23:00:22.970Z,3.65
2023-03-04T23:02:55.828Z,3.75
2023-03-04T23:05:28.190Z,3.80
2023-03-04T23:08:00.220Z,3.60
2023-03-04T23:10:32.188Z,3.58
2023-03-04T23:13:04.255Z,3.83
2023-03-04T23:15:36.187Z,4.00
2023-03-04T23:18:08.163Z,3.42
2023-03-04T23:20:42.322Z,3.90
2023-03-04T23:23:14.352Z,3.67
2023-03-04T23:25:46.490Z,3.80
2023-03-04T23:28:19.219Z,3.90
2023-03-04T23:30:51.293Z,4.53
2023-03-04T23:33:23.485Z,4.15
2023-03-04T23:35:55.521Z,3.58
2023-03-04T23:38:27.918Z,5.45
2023-03-04T23:40:59.968Z,6.00
2023-03-04T23:43:33.071Z,4.82
2023-03-04T23:46:05.452Z,3.92
2023-03-04T23:48:39.708Z,3.47
2023-03-04T23:51:12.287Z,4.00
2023-03-04T23:53:45.712Z,4.28
2023-03-04T23:56:24.136Z,3.95
2023-03-04T23:58:58.185Z,4.57
